SGAS/ASU METAR and TAF weather

Enter ICAO airport designator
Station Type Date Time Source
SGAS METAR 2017/10/19 07:00 UTC NOAA

SGAS 190700Z 03003KT CAVOK 26/20 Q1004


Station Type Date Time Source
SGAS Decoded METAR 2017/10/19 07:00 UTC NOAA

Asuncion / Aeropuerto, Paraguay (SGAS) 25-16S 057-38W 101M
Oct 19, 2017 - 03:00 AM EDT / 2017.10.19 0700 UTC
Wind: from the NNE (030 degrees) at 3 MPH (3 KT):0
Visibility: greater than 7 mile(s):0
Temperature: 78 F (26 C)
Dew Point: 68 F (20 C)
Relative Humidity: 69%
Pressure (altimeter): 29.65 in. Hg (1004 hPa)
ob: SGAS 190700Z 03003KT CAVOK 26/20 Q1004
cycle: 7

Station Type Date Time Source
SGAS TAF 2017/10/19 06:21 UTC NOAA

TAF TAF SGAS 190520Z 1906/2006 03010KT CAVOK TX26/1918Z TN20/1910Z
BECMG 1907/1910 9999 SCT033 PROB40
TEMPO 1911/1914 23020G35KT 5000 TSRA SCT015 OVC020 FEW040CB
BECMG 1915/1918 8000 TSRA OVC017 FEW040CB


Example: see airport list